createdAt,value
2022-10-29T00:01:25.358Z,14.03
2022-10-29T00:03:52.290Z,14.44
2022-10-29T00:06:19.038Z,14.27
2022-10-29T00:08:45.903Z,14.52
2022-10-29T00:11:18.436Z,14.28
2022-10-29T00:13:46.111Z,14.67
2022-10-29T00:16:18.845Z,13.95
2022-10-29T00:18:45.881Z,14.74
2022-10-29T00:21:18.390Z,14.75
2022-10-29T00:23:48.427Z,14.17
2022-10-29T00:26:16.109Z,14.12
2022-10-29T00:28:43.142Z,14.54
2022-10-29T00:31:15.673Z,14.04
2022-10-29T00:33:47.719Z,13.54
2022-10-29T00:36:17.087Z,14.15
2022-10-29T00:38:53.855Z,14.44
2022-10-29T00:41:23.380Z,14.48
2022-10-29T00:43:52.506Z,13.60
2022-10-29T00:46:30.624Z,13.59
2022-10-29T00:49:01.044Z,13.66
2022-10-29T00:51:28.847Z,14.49
2022-10-29T00:54:05.184Z,14.43
2022-10-29T00:56:35.562Z,14.00
2022-10-29T00:59:03.138Z,14.57
2022-10-29T01:01:32.247Z,13.85
2022-10-29T01:04:00.242Z,14.52
2022-10-29T01:06:28.589Z,14.72
2022-10-29T01:08:55.226Z,13.90
2022-10-29T01:11:57.322Z,14.62
2022-10-29T01:14:54.389Z,14.48
2022-10-29T01:17:33.051Z,13.82
2022-10-29T01:20:47.853Z,14.30
2022-10-29T01:23:17.405Z,14.27
2022-10-29T01:26:11.270Z,14.13
2022-10-29T01:29:02.482Z,14.19
2022-10-29T01:31:31.655Z,14.23
2022-10-29T01:34:20.039Z,14.31
2022-10-29T01:37:18.363Z,14.34
2022-10-29T01:39:50.102Z,13.10
2022-10-29T01:42:54.004Z,14.41
2022-10-29T01:45:28.178Z,14.37
2022-10-29T01:48:07.286Z,14.08
2022-10-29T01:50:34.281Z,13.27
2022-10-29T01:53:01.089Z,13.69
2022-10-29T01:55:35.926Z,13.78
2022-10-29T01:58:04.151Z,14.14
2022-10-29T02:00:40.895Z,14.13
2022-10-29T02:03:12.981Z,14.40
2022-10-29T02:05:51.473Z,14.48
2022-10-29T02:08:23.346Z,14.50
2022-10-29T02:10:54.317Z,14.44
2022-10-29T02:13:24.562Z,14.47
2022-10-29T02:15:56.868Z,13.94
2022-10-29T02:18:23.624Z,14.40
2022-10-29T02:20:50.787Z,14.38
2022-10-29T02:23:17.521Z,13.80
2022-10-29T02:25:46.611Z,14.00
2022-10-29T02:28:15.617Z,13.32
2022-10-29T02:30:42.369Z,14.07
2022-10-29T02:33:09.079Z,14.18
2022-10-29T02:35:38.127Z,14.12
2022-10-29T02:38:04.799Z,13.59
2022-10-29T02:40:31.449Z,13.85
2022-10-29T02:43:02.988Z,12.76
2022-10-29T02:45:29.769Z,13.78
2022-10-29T02:47:56.602Z,13.28
2022-10-29T02:50:25.921Z,13.14
2022-10-29T02:52:52.648Z,13.39
2022-10-29T02:55:22.034Z,13.50
2022-10-29T02:57:48.786Z,13.29
2022-10-29T03:00:15.765Z,13.60
2022-10-29T03:02:44.735Z,13.50
2022-10-29T03:05:13.605Z,13.44
2022-10-29T03:07:42.530Z,13.36
2022-10-29T03:10:11.717Z,13.24
2022-10-29T03:12:40.957Z,13.77
2022-10-29T03:15:12.627Z,13.54
2022-10-29T03:17:39.170Z,13.69
2022-10-29T03:20:06.318Z,13.80
2022-10-29T03:22:35.258Z,13.92
2022-10-29T03:25:06.772Z,13.69
2022-10-29T03:27:35.845Z,13.52
2022-10-29T03:30:05.235Z,13.55
2022-10-29T03:32:34.400Z,14.00
2022-10-29T03:35:03.495Z,13.64
2022-10-29T03:37:30.413Z,13.62
2022-10-29T03:40:01.877Z,14.25
2022-10-29T03:42:31.187Z,14.31
2022-10-29T03:45:01.703Z,13.58
2022-10-29T03:47:29.079Z,13.86
2022-10-29T03:49:55.830Z,14.16
2022-10-29T03:52:22.639Z,13.72
2022-10-29T03:54:49.464Z,13.81
2022-10-29T03:57:21.505Z,14.27
2022-10-29T03:59:52.562Z,13.13
2022-10-29T04:02:19.820Z,13.68
2022-10-29T04:04:46.636Z,13.42
2022-10-29T04:07:13.346Z,14.15
2022-10-29T04:09:42.255Z,14.06
2022-10-29T04:12:09.542Z,14.21
2022-10-29T04:14:38.974Z,14.27
2022-10-29T04:17:12.038Z,14.31
2022-10-29T04:19:38.569Z,14.20
2022-10-29T04:30:28.159Z,13.84
2022-10-29T04:32:59.237Z,14.32
2022-10-29T04:35:29.620Z,13.85
2022-10-29T04:37:58.976Z,13.35
2022-10-29T04:40:25.726Z,14.23
2022-10-29T04:42:52.637Z,13.78
2022-10-29T04:45:23.992Z,14.39
2022-10-29T04:48:04.132Z,13.67
2022-10-29T04:50:34.205Z,14.03
2022-10-29T04:53:04.920Z,13.00
2022-10-29T04:55:37.083Z,13.27
2022-10-29T04:58:09.939Z,13.18
2022-10-29T05:00:38.941Z,13.82
2022-10-29T05:03:05.804Z,13.76
2022-10-29T05:05:32.564Z,12.87
2022-10-29T05:08:02.833Z,13.97
2022-10-29T05:10:36.173Z,13.81
2022-10-29T05:13:07.115Z,13.99
2022-10-29T05:15:36.820Z,13.97
2022-10-29T05:18:09.368Z,13.66
2022-10-29T05:20:36.337Z,13.76
2022-10-29T05:23:07.793Z,13.71
2022-10-29T05:25:38.463Z,13.68
2022-10-29T05:28:09.314Z,13.80
2022-10-29T05:30:36.432Z,13.46
2022-10-29T05:33:08.808Z,13.27
2022-10-29T05:35:38.430Z,12.69
2022-10-29T05:38:09.250Z,13.15
2022-10-29T05:40:36.004Z,13.02
2022-10-29T05:43:02.692Z,12.85
2022-10-29T05:45:29.770Z,12.58
2022-10-29T05:48:02.974Z,12.54
2022-10-29T05:50:32.645Z,12.93
2022-10-29T05:53:04.324Z,12.98
2022-10-29T05:55:32.665Z,13.47
2022-10-29T05:58:06.140Z,13.32
2022-10-29T06:00:35.557Z,12.55
2022-10-29T06:03:02.623Z,13.36
2022-10-29T06:05:29.555Z,13.40
2022-10-29T06:08:00.199Z,12.80
2022-10-29T06:10:28.829Z,12.67
2022-10-29T06:12:55.487Z,12.80
2022-10-29T06:15:23.093Z,13.66
2022-10-29T06:17:50.145Z,13.59
2022-10-29T06:20:19.820Z,13.71
2022-10-29T06:22:57.118Z,12.83
2022-10-29T06:25:27.597Z,13.78
2022-10-29T06:28:07.521Z,13.87
2022-10-29T06:30:37.022Z,14.02
2022-10-29T06:33:04.754Z,13.90
2022-10-29T06:35:31.857Z,13.95
2022-10-29T06:38:09.266Z,13.31
2022-10-29T06:40:43.818Z,13.56
2022-10-29T06:43:12.799Z,13.74
2022-10-29T06:45:42.020Z,13.19
2022-10-29T06:48:14.607Z,13.48
2022-10-29T06:50:44.437Z,13.08
2022-10-29T06:53:14.918Z,13.23
2022-10-29T06:55:41.723Z,12.73
2022-10-29T06:58:14.879Z,13.70
2022-10-29T07:00:46.946Z,13.70
2022-10-29T07:03:17.509Z,12.98
2022-10-29T07:05:47.336Z,13.05
2022-10-29T07:08:18.692Z,13.02
2022-10-29T07:10:54.354Z,13.29
2022-10-29T07:13:36.568Z,13.07
2022-10-29T07:16:03.339Z,12.68
2022-10-29T07:18:34.657Z,12.34
2022-10-29T07:21:05.185Z,12.14
2022-10-29T07:23:34.498Z,12.81
2022-10-29T07:26:03.386Z,12.84
2022-10-29T07:29:37.519Z,12.07
2022-10-29T07:32:30.414Z,8.57
2022-10-29T07:35:17.619Z,12.09
2022-10-29T07:37:44.322Z,12.39
2022-10-29T07:40:18.645Z,13.16
2022-10-29T07:42:51.599Z,12.78
2022-10-29T07:45:20.797Z,12.48
2022-10-29T07:48:03.284Z,13.04
2022-10-29T07:50:34.597Z,13.36
2022-10-29T07:53:07.034Z,12.12
2022-10-29T07:55:35.947Z,12.29
2022-10-29T07:58:05.414Z,13.41
2022-10-29T08:00:37.979Z,12.95
2022-10-29T08:03:05.792Z,12.57
2022-10-29T08:05:56.331Z,12.05
2022-10-29T08:08:23.544Z,12.92
2022-10-29T08:10:50.275Z,13.08
2022-10-29T08:13:19.237Z,12.84
2022-10-29T08:16:17.991Z,12.95
2022-10-29T08:19:10.414Z,13.39
2022-10-29T08:22:02.556Z,9.34
2022-10-29T08:26:47.836Z,9.73
2022-10-29T08:28:30.410Z,9.15
2022-10-29T08:35:05.797Z,10.74
2022-10-29T08:42:03.618Z,13.53
2022-10-29T08:44:56.069Z,13.48
2022-10-29T08:47:33.441Z,13.01
2022-10-29T08:50:14.562Z,13.46
2022-10-29T08:52:53.319Z,12.62
2022-10-29T08:55:36.718Z,13.01
2022-10-29T08:58:40.429Z,13.23
2022-10-29T09:01:11.575Z,13.40
2022-10-29T09:03:45.900Z,12.25
2022-10-29T09:06:17.756Z,14.05
2022-10-29T09:08:59.462Z,13.64
2022-10-29T09:11:35.912Z,14.24
2022-10-29T09:14:17.266Z,14.40
2022-10-29T09:16:47.806Z,13.72
2022-10-29T09:19:52.969Z,14.65
2022-10-29T09:22:25.342Z,14.82
2022-10-29T09:25:12.223Z,14.66
2022-10-29T09:28:02.610Z,14.70
2022-10-29T09:30:33.546Z,14.02
2022-10-29T09:33:05.152Z,13.96
2022-10-29T09:35:39.332Z,13.60
2022-10-29T09:38:36.836Z,14.70
2022-10-29T09:41:15.768Z,14.00
2022-10-29T09:43:47.795Z,14.29
2022-10-29T09:46:46.698Z,14.41
2022-10-29T09:49:44.869Z,14.03
2022-10-29T09:52:21.809Z,13.64
2022-10-29T09:54:57.564Z,14.16
2022-10-29T09:57:29.593Z,14.01
2022-10-29T09:59:59.094Z,14.51
2022-10-29T10:02:39.006Z,14.68
2022-10-29T10:05:18.558Z,14.09
2022-10-29T10:08:04.434Z,12.94
2022-10-29T10:10:31.908Z,14.17
2022-10-29T10:13:10.744Z,14.21
2022-10-29T10:15:55.517Z,14.02
2022-10-29T10:18:33.855Z,14.04
2022-10-29T10:21:00.619Z,14.22
2022-10-29T10:23:34.331Z,14.42
2022-10-29T10:26:05.294Z,14.26
2022-10-29T10:28:34.760Z,14.09
2022-10-29T10:31:04.402Z,14.86
2022-10-29T10:33:35.442Z,13.97
2022-10-29T10:36:14.440Z,13.57
2022-10-29T10:38:50.340Z,14.17
2022-10-29T10:41:31.203Z,13.99
2022-10-29T10:44:05.257Z,14.39
2022-10-29T10:46:40.376Z,14.19
2022-10-29T10:49:15.170Z,14.03
2022-10-29T10:51:52.183Z,13.74
2022-10-29T10:54:34.319Z,13.92
2022-10-29T10:57:28.415Z,13.78
2022-10-29T11:00:06.546Z,14.11
2022-10-29T11:03:11.869Z,14.35
2022-10-29T11:05:46.541Z,14.53
2022-10-29T11:08:39.558Z,14.71
2022-10-29T11:11:25.028Z,14.50
2022-10-29T11:13:55.306Z,14.23
2022-10-29T11:16:41.119Z,14.68
2022-10-29T11:19:31.303Z,14.74
2022-10-29T11:22:13.265Z,15.14
2022-10-29T11:24:47.512Z,14.57
2022-10-29T11:27:45.326Z,15.52
2022-10-29T11:30:16.466Z,15.75
2022-10-29T11:33:17.394Z,15.90
2022-10-29T11:36:01.581Z,15.56
2022-10-29T11:38:42.801Z,15.43
2022-10-29T11:41:47.726Z,15.59
2022-10-29T11:44:29.126Z,14.57
2022-10-29T11:47:05.579Z,15.25
2022-10-29T11:50:06.846Z,15.41
2022-10-29T11:52:57.259Z,15.41
2022-10-29T11:55:33.910Z,14.91
2022-10-29T11:58:22.263Z,15.81
2022-10-29T12:00:54.427Z,15.67
2022-10-29T12:04:01.508Z,16.19
2022-10-29T12:06:55.002Z,16.27
2022-10-29T12:09:24.173Z,15.88
2022-10-29T12:12:09.800Z,16.57
2022-10-29T12:14:48.154Z,15.62
2022-10-29T12:17:23.184Z,15.66
2022-10-29T12:20:17.593Z,16.45
2022-10-29T12:23:12.003Z,16.75
2022-10-29T12:26:12.506Z,16.86
2022-10-29T12:29:00.422Z,16.35
2022-10-29T12:31:30.967Z,15.97
2022-10-29T12:34:33.796Z,16.07
2022-10-29T12:37:22.621Z,15.83
2022-10-29T12:39:59.861Z,15.94
2022-10-29T12:42:30.496Z,16.16
2022-10-29T12:45:21.594Z,16.16
2022-10-29T12:48:00.561Z,16.18
2022-10-29T12:50:45.668Z,16.03
2022-10-29T12:53:24.112Z,16.00
2022-10-29T12:55:54.205Z,14.68
2022-10-29T12:58:45.197Z,15.63
2022-10-29T13:01:43.837Z,15.30
2022-10-29T13:04:25.955Z,15.75
2022-10-29T13:09:48.509Z,15.76
2022-10-29T13:13:06.463Z,16.10
2022-10-29T13:15:43.924Z,15.79
2022-10-29T13:18:22.951Z,15.87
2022-10-29T13:20:52.326Z,16.24
2022-10-29T13:23:22.133Z,16.23
2022-10-29T13:25:56.593Z,16.41
2022-10-29T13:28:25.654Z,16.42
2022-10-29T13:31:12.522Z,16.37
2022-10-29T13:33:41.416Z,16.51
2022-10-29T13:36:16.348Z,16.05
2022-10-29T13:39:05.114Z,14.83
2022-10-29T13:41:42.889Z,15.27
2022-10-29T13:44:26.246Z,15.45
2022-10-29T13:47:10.598Z,14.35
2022-10-29T13:49:37.580Z,15.27
2022-10-29T13:52:06.804Z,15.20
2022-10-29T13:54:47.007Z,14.96
2022-10-29T13:57:25.240Z,15.29
2022-10-29T14:00:16.213Z,14.87
2022-10-29T14:02:45.192Z,15.07
2022-10-29T14:05:14.787Z,14.93
2022-10-29T14:07:59.270Z,14.89
2022-10-29T14:11:01.002Z,15.00
2022-10-29T14:13:57.008Z,15.15
2022-10-29T14:20:35.863Z,15.18
2022-10-29T14:23:11.208Z,15.11
2022-10-29T14:25:42.870Z,14.70
2022-10-29T14:28:37.166Z,14.98
2022-10-29T14:31:12.326Z,14.77
2022-10-29T14:33:59.153Z,14.65
2022-10-29T14:36:43.791Z,13.83
2022-10-29T14:39:28.823Z,14.23
2022-10-29T14:42:11.823Z,13.78
2022-10-29T14:44:39.554Z,13.67
2022-10-29T14:47:13.966Z,14.46
2022-10-29T14:49:45.906Z,14.18
2022-10-29T14:52:28.220Z,14.02
2022-10-29T14:55:04.976Z,14.26
2022-10-29T14:57:35.877Z,14.74
2022-10-29T15:00:05.497Z,14.39
2022-10-29T15:02:39.922Z,14.80
2022-10-29T15:05:45.895Z,15.06
2022-10-29T15:08:19.031Z,14.55
2022-10-29T15:10:53.990Z,14.43
2022-10-29T15:13:27.900Z,15.14
2022-10-29T15:15:59.309Z,14.53
2022-10-29T15:18:31.494Z,15.02
2022-10-29T15:21:00.607Z,14.15
2022-10-29T15:23:35.502Z,14.96
2022-10-29T15:26:07.573Z,14.67
2022-10-29T15:28:44.449Z,15.00
2022-10-29T15:31:24.366Z,14.43
2022-10-29T15:33:57.310Z,14.77
2022-10-29T15:36:26.614Z,14.35
2022-10-29T15:39:17.678Z,14.30
2022-10-29T15:41:48.000Z,14.63
2022-10-29T15:44:35.477Z,14.86
2022-10-29T15:47:17.150Z,14.79
2022-10-29T15:49:46.471Z,14.10
2022-10-29T15:52:16.710Z,13.80
2022-10-29T15:54:49.095Z,13.27
2022-10-29T15:57:18.542Z,14.34
2022-10-29T15:59:55.800Z,13.83
2022-10-29T16:02:25.401Z,14.16
2022-10-29T16:04:54.352Z,13.80
2022-10-29T16:07:21.049Z,14.11
2022-10-29T16:09:50.601Z,13.87
2022-10-29T16:12:20.213Z,13.55
2022-10-29T16:14:52.265Z,13.97
2022-10-29T16:17:30.989Z,13.70
2022-10-29T16:20:00.476Z,13.30
2022-10-29T16:22:30.173Z,13.37
2022-10-29T16:24:59.659Z,14.04
2022-10-29T16:27:28.929Z,13.81
2022-10-29T16:29:56.704Z,14.21
2022-10-29T16:32:26.774Z,13.38
2022-10-29T16:34:59.199Z,14.12
2022-10-29T16:37:43.746Z,13.69
2022-10-29T16:40:14.402Z,14.18
2022-10-29T16:42:44.819Z,12.35
2022-10-29T16:45:18.778Z,13.97
2022-10-29T16:47:45.781Z,13.93
2022-10-29T16:50:24.088Z,14.04
2022-10-29T16:53:00.715Z,14.05
2022-10-29T16:55:35.964Z,13.96
2022-10-29T16:58:02.743Z,13.50
2022-10-29T17:01:05.418Z,14.12
2022-10-29T17:03:35.426Z,14.13
2022-10-29T17:06:04.554Z,13.76
2022-10-29T17:08:37.036Z,14.34
2022-10-29T17:11:06.131Z,13.77
2022-10-29T17:13:34.551Z,13.83
2022-10-29T17:16:04.584Z,14.08
2022-10-29T17:18:32.486Z,13.61
2022-10-29T17:21:00.392Z,13.79
2022-10-29T17:23:34.692Z,13.24
2022-10-29T17:26:01.968Z,13.93
2022-10-29T17:28:29.085Z,13.57
2022-10-29T17:30:57.971Z,14.13
2022-10-29T17:33:30.293Z,13.38
2022-10-29T17:36:04.327Z,14.00
2022-10-29T17:38:31.231Z,12.87
2022-10-29T17:41:04.323Z,13.65
2022-10-29T17:43:33.384Z,13.08
2022-10-29T17:46:06.493Z,13.32
2022-10-29T17:48:40.375Z,13.56
2022-10-29T17:51:10.846Z,12.76
2022-10-29T17:53:38.936Z,13.50
2022-10-29T17:56:06.323Z,13.52
2022-10-29T17:58:32.975Z,13.36
2022-10-29T18:01:04.834Z,13.60
2022-10-29T18:03:33.299Z,13.29
2022-10-29T18:06:01.955Z,13.31
2022-10-29T18:08:32.075Z,13.57
2022-10-29T18:11:07.531Z,13.95
2022-10-29T18:13:39.308Z,13.92
2022-10-29T18:16:06.321Z,13.34
2022-10-29T18:18:54.396Z,13.31
2022-10-29T18:21:30.661Z,13.97
2022-10-29T18:23:57.511Z,13.97
2022-10-29T18:26:34.756Z,13.88
2022-10-29T18:29:12.048Z,13.29
2022-10-29T18:31:42.197Z,13.86
2022-10-29T18:34:09.569Z,13.17
2022-10-29T18:36:36.265Z,12.79
2022-10-29T18:39:04.870Z,13.69
2022-10-29T18:41:31.818Z,13.18
2022-10-29T18:44:06.136Z,13.01
2022-10-29T18:46:33.995Z,13.29
2022-10-29T18:49:01.064Z,13.65
2022-10-29T18:51:34.043Z,13.25
2022-10-29T18:54:00.781Z,13.82
2022-10-29T18:56:31.144Z,13.74
2022-10-29T18:59:01.132Z,13.35
2022-10-29T19:01:32.174Z,13.33
2022-10-29T19:04:05.282Z,13.58
2022-10-29T19:06:34.240Z,13.30
2022-10-29T19:09:05.127Z,13.18
2022-10-29T19:11:31.953Z,13.68
2022-10-29T19:14:00.637Z,13.88
2022-10-29T19:16:47.129Z,13.81
2022-10-29T19:19:21.279Z,13.63
2022-10-29T19:21:53.510Z,13.93
2022-10-29T19:24:24.657Z,13.30
2022-10-29T19:26:51.401Z,13.61
2022-10-29T19:29:20.623Z,13.50
2022-10-29T19:32:00.881Z,13.87
2022-10-29T19:34:56.998Z,13.58
2022-10-29T19:37:26.489Z,14.22
2022-10-29T19:39:56.492Z,14.48
2022-10-29T19:42:23.172Z,14.87
2022-10-29T19:44:53.590Z,14.67
2022-10-29T19:47:26.383Z,14.09
2022-10-29T19:49:53.101Z,14.34
2022-10-29T19:52:19.858Z,14.75
2022-10-29T19:54:53.765Z,14.31
2022-10-29T19:57:20.479Z,14.46
2022-10-29T19:59:49.555Z,14.94
2022-10-29T20:02:16.508Z,15.18
2022-10-29T20:04:43.934Z,14.56
2022-10-29T20:07:13.314Z,14.52
2022-10-29T20:09:39.861Z,15.15
2022-10-29T20:12:10.340Z,14.80
2022-10-29T20:14:38.457Z,15.16
2022-10-29T20:17:09.911Z,14.45
2022-10-29T20:19:36.649Z,15.16
2022-10-29T20:22:03.480Z,15.21
2022-10-29T20:24:32.245Z,14.64
2022-10-29T20:26:58.955Z,14.17
2022-10-29T20:29:27.827Z,14.45
2022-10-29T20:31:56.662Z,14.67
2022-10-29T20:34:28.280Z,15.25
2022-10-29T20:36:55.165Z,14.64
2022-10-29T20:39:32.407Z,14.11
2022-10-29T20:42:02.303Z,15.05
2022-10-29T20:44:29.207Z,15.02
2022-10-29T20:46:58.863Z,14.85
2022-10-29T20:49:30.011Z,15.14
2022-10-29T20:51:56.751Z,15.14
2022-10-29T20:54:23.446Z,14.45
2022-10-29T20:56:53.081Z,14.64
2022-10-29T20:59:19.903Z,15.55
2022-10-29T21:01:49.936Z,14.55
2022-10-29T21:04:20.909Z,15.55
2022-10-29T21:06:49.936Z,15.04
2022-10-29T21:09:19.153Z,15.20
2022-10-29T21:11:45.838Z,15.01
2022-10-29T21:14:12.633Z,15.61
2022-10-29T21:16:41.414Z,15.10
2022-10-29T21:19:08.201Z,15.11
2022-10-29T21:21:38.034Z,14.77
2022-10-29T21:24:07.382Z,15.55
2022-10-29T21:26:36.283Z,15.47
2022-10-29T21:29:03.216Z,14.46
2022-10-29T21:31:43.084Z,15.19
2022-10-29T21:34:13.032Z,15.20
2022-10-29T21:36:39.685Z,15.64
2022-10-29T21:39:11.151Z,15.11
2022-10-29T21:41:37.921Z,14.92
2022-10-29T21:44:04.869Z,14.91
2022-10-29T21:46:34.100Z,14.71
2022-10-29T21:49:03.438Z,15.42
2022-10-29T21:51:30.159Z,15.38
2022-10-29T21:53:59.011Z,15.67
2022-10-29T21:59:24.741Z,15.53
2022-10-29T22:01:51.452Z,14.87
2022-10-29T22:04:18.267Z,14.56
2022-10-29T22:06:45.089Z,14.95
2022-10-29T22:09:11.938Z,14.33
2022-10-29T22:11:38.607Z,14.97
2022-10-29T22:14:07.988Z,14.68
2022-10-29T22:16:34.679Z,15.00
2022-10-29T22:19:03.922Z,15.34
2022-10-29T22:21:33.402Z,15.12
2022-10-29T22:24:02.779Z,14.56
2022-10-29T22:26:32.161Z,15.49
2022-10-29T22:29:01.119Z,15.27
2022-10-29T22:31:27.850Z,15.26
2022-10-29T22:33:54.693Z,14.31
2022-10-29T22:36:23.507Z,14.86
2022-10-29T22:38:54.438Z,15.19
2022-10-29T22:41:23.731Z,14.64
2022-10-29T22:43:55.468Z,14.56
2022-10-29T22:46:22.770Z,14.64
2022-10-29T22:48:52.057Z,14.54
2022-10-29T22:51:21.845Z,15.14
2022-10-29T22:53:51.494Z,14.96
2022-10-29T22:56:19.391Z,14.90
2022-10-29T22:58:46.351Z,14.83
2022-10-29T23:01:17.545Z,14.17
2022-10-29T23:03:50.363Z,14.67
2022-10-29T23:06:19.569Z,14.92
2022-10-29T23:08:48.203Z,14.96
2022-10-29T23:11:19.729Z,14.72
2022-10-29T23:13:47.579Z,14.44
2022-10-29T23:16:15.857Z,14.85
2022-10-29T23:18:42.562Z,14.05
2022-10-29T23:21:09.538Z,14.36
2022-10-29T23:23:40.696Z,14.64
2022-10-29T23:26:11.425Z,14.56
2022-10-29T23:28:39.605Z,14.86
2022-10-29T23:31:10.265Z,14.88
2022-10-29T23:33:39.565Z,14.30
2022-10-29T23:36:09.351Z,14.71
2022-10-29T23:38:38.179Z,14.02
2022-10-29T23:41:05.180Z,14.60
2022-10-29T23:43:38.816Z,13.62
2022-10-29T23:46:07.649Z,14.02
2022-10-29T23:48:37.422Z,14.08
2022-10-29T23:51:08.832Z,13.76
2022-10-29T23:53:35.994Z,13.38
2022-10-29T23:56:03.090Z,13.40
2022-10-29T23:58:29.738Z,12.68
